Time;durP1;ratioP1;P1;durP2;ratioP2;P2;SDS_P1;SDS_P2;PMS_P1;PMS_P2;Temp;Humidity;BMP_temperature;BMP_pressure;BME280_temperature;BME280_humidity;BME280_pressure;Samples;Min_cycle;Max_cycle;Signal;HPM_P1;HPM_P2
2022/08/19 00:01:33;;;;;;;1.17;0.47;;;12.50;99.90;;;;;;4960978;28;20375;-75
2022/08/19 00:04:01;;;;;;;0.38;0.08;;;12.50;99.90;;;;;;4960659;28;20174;-75
2022/08/19 00:06:29;;;;;;;0.10;0.10;;;12.50;99.90;;;;;;4960654;28;20049;-75
2022/08/19 00:08:56;;;;;;;1.90;0.85;;;12.50;99.90;;;;;;4960797;28;20149;-75
2022/08/19 00:11:22;;;;;;;0.10;0.10;;;12.50;99.90;;;;;;4961109;28;20111;-75
2022/08/19 00:13:49;;;;;;;0.05;0.05;;;12.30;99.90;;;;;;4960841;28;20067;-75
2022/08/19 00:16:19;;;;;;;0.00;0.00;;;12.30;99.90;;;;;;4961074;28;20122;-75
2022/08/19 00:18:44;;;;;;;0.00;0.00;;;12.30;99.90;;;;;;4960722;28;20122;-75
2022/08/19 00:21:10;;;;;;;0.32;0.30;;;12.30;99.90;;;;;;4960660;28;20075;-75
2022/08/19 00:23:36;;;;;;;0.00;0.00;;;12.20;99.90;;;;;;4959068;28;20491;-75
2022/08/19 00:26:03;;;;;;;0.00;0.00;;;12.30;99.90;;;;;;4960639;28;20414;-74
2022/08/19 00:28:30;;;;;;;0.17;0.15;;;12.30;99.90;;;;;;4960587;28;20054;-74
2022/08/19 00:30:55;;;;;;;0.35;0.20;;;12.30;99.90;;;;;;4960473;28;20059;-74
2022/08/19 00:33:21;;;;;;;0.85;0.32;;;12.50;99.90;;;;;;4960697;28;20054;-75
2022/08/19 00:35:47;;;;;;;0.00;0.00;;;12.30;99.90;;;;;;4958942;28;20039;-74
2022/08/19 00:38:13;;;;;;;0.30;0.25;;;12.30;99.90;;;;;;4958257;28;20039;-75
2022/08/19 00:40:39;;;;;;;0.20;0.20;;;12.30;99.90;;;;;;4957875;29;20074;-75
2022/08/19 00:43:10;;;;;;;0.00;0.00;;;12.30;99.90;;;;;;4958211;28;20111;-74
2022/08/19 00:45:36;;;;;;;0.10;0.05;;;12.30;99.90;;;;;;4958121;28;20122;-74
2022/08/19 00:48:05;;;;;;;0.10;0.10;;;12.40;99.90;;;;;;4958354;28;20153;-75
2022/08/19 00:50:32;;;;;;;0.10;0.10;;;12.40;99.90;;;;;;4958524;28;20102;-74
2022/08/19 00:52:59;;;;;;;0.28;0.28;;;12.30;99.90;;;;;;4958095;28;20058;-75
2022/08/19 00:55:28;;;;;;;0.10;0.10;;;12.40;99.90;;;;;;4957606;28;20047;-75
2022/08/19 00:58:06;;;;;;;0.17;0.17;;;12.40;99.90;;;;;;4958008;28;20076;-75
2022/08/19 01:00:36;;;;;;;0.20;0.20;;;12.30;99.90;;;;;;4957734;28;20054;-75
2022/08/19 01:03:02;;;;;;;0.00;0.00;;;12.10;99.90;;;;;;4957349;28;20063;-75
2022/08/19 01:05:29;;;;;;;0.10;0.10;;;12.10;99.90;;;;;;4957604;28;20043;-75
2022/08/19 01:07:58;;;;;;;0.00;0.00;;;12.10;99.90;;;;;;4953844;28;20055;-75
2022/08/19 01:10:27;;;;;;;0.20;0.20;;;12.10;99.90;;;;;;4957728;28;20058;-75
2022/08/19 01:12:55;;;;;;;0.00;0.00;;;12.10;99.90;;;;;;4957431;28;20121;-75
2022/08/19 01:15:25;;;;;;;0.30;0.30;;;12.10;99.90;;;;;;4957533;28;20046;-75
2022/08/19 01:17:51;;;;;;;0.00;0.00;;;12.00;99.90;;;;;;4958158;28;20067;-74
2022/08/19 01:20:20;;;;;;;0.15;0.10;;;11.90;99.90;;;;;;4958732;28;20048;-75
2022/08/19 01:22:56;;;;;;;1.40;0.47;;;12.80;99.90;;;;;;4958579;28;20132;-75
2022/08/19 01:25:48;;;;;;;0.00;0.00;;;11.80;99.90;;;;;;4958966;28;20050;-75
2022/08/19 01:28:26;;;;;;;0.30;0.25;;;11.90;99.90;;;;;;4958656;28;20054;-74
2022/08/19 01:30:54;;;;;;;0.40;0.32;;;11.90;99.90;;;;;;4958145;28;20410;-74
2022/08/19 01:33:20;;;;;;;0.10;0.00;;;11.90;99.90;;;;;;4957218;28;20078;-74
2022/08/19 01:35:50;;;;;;;0.15;0.15;;;11.90;99.90;;;;;;4954969;28;20050;-75
2022/08/19 01:38:24;;;;;;;0.10;0.10;;;12.70;99.90;;;;;;4956107;28;20102;-75
2022/08/19 01:40:49;;;;;;;0.20;0.13;;;11.90;99.90;;;;;;4956492;28;20390;-74
2022/08/19 01:43:15;;;;;;;0.00;0.00;;;11.80;99.90;;;;;;4955055;29;20046;-75
2022/08/19 01:45:41;;;;;;;0.00;0.00;;;11.80;99.90;;;;;;4956249;29;20461;-75
2022/08/19 01:48:07;;;;;;;0.20;0.10;;;11.70;99.90;;;;;;4955898;28;20498;-75
2022/08/19 01:50:33;;;;;;;0.10;0.00;;;11.70;99.90;;;;;;4956208;28;20043;-74
2022/08/19 01:53:01;;;;;;;0.00;0.00;;;11.80;99.90;;;;;;4955787;28;20139;-74
2022/08/19 01:55:27;;;;;;;0.20;0.10;;;11.80;99.90;;;;;;4955462;28;20056;-75
2022/08/19 01:57:57;;;;;;;3.85;0.35;;;11.80;99.90;;;;;;5100920;22;20104;-92
2022/08/19 02:00:25;;;;;;;0.35;0.15;;;12.10;99.90;;;;;;5037206;28;20033;-92
2022/08/19 02:02:51;;;;;;;0.10;0.05;;;11.80;99.90;;;;;;5020780;28;20040;-93
2022/08/19 02:05:18;;;;;;;0.17;0.17;;;11.80;99.90;;;;;;5019891;28;20057;-93
2022/08/19 02:07:44;;;;;;;0.85;0.50;;;11.80;99.90;;;;;;5036635;28;20086;-94
2022/08/19 02:10:15;;;;;;;0.85;0.52;;;11.80;99.90;;;;;;5036823;28;20072;-94
2022/08/19 02:12:41;;;;;;;0.10;0.10;;;11.80;99.90;;;;;;5036853;28;20077;-92
2022/08/19 02:15:07;;;;;;;0.00;0.00;;;11.70;99.90;;;;;;5036982;28;20048;-93
2022/08/19 02:17:34;;;;;;;0.00;0.00;;;11.70;99.90;;;;;;5036744;28;20034;-92
2022/08/19 02:20:00;;;;;;;0.20;0.20;;;11.70;99.90;;;;;;5036902;28;20026;-93
2022/08/19 02:22:26;;;;;;;0.17;0.10;;;11.70;99.90;;;;;;5036901;28;20055;-91
2022/08/19 02:24:53;;;;;;;0.00;0.00;;;12.80;99.90;;;;;;5020446;28;20030;-92
2022/08/19 02:27:20;;;;;;;0.40;0.32;;;12.50;99.90;;;;;;5023637;28;20034;-93
2022/08/19 02:29:48;;;;;;;0.98;0.65;;;11.80;99.90;;;;;;5040788;28;20057;-92
2022/08/19 02:32:14;;;;;;;0.00;0.00;;;11.70;99.90;;;;;;5023939;28;20046;-92
2022/08/19 02:34:40;;;;;;;0.08;0.08;;;12.60;99.90;;;;;;5040209;28;20025;-92
2022/08/19 02:38:24;;;;;;;0.03;0.03;;;12.80;99.90;;;;;;5039876;28;20038;-93
2022/08/19 02:39:52;;;;;;;0.10;0.10;;;11.80;99.90;;;;;;5040014;28;20118;-92
2022/08/19 02:42:17;;;;;;;0.47;0.22;;;11.80;99.90;;;;;;5023680;28;20018;-92
2022/08/19 02:44:43;;;;;;;0.77;0.40;;;12.50;99.90;;;;;;5023734;28;20080;-92
2022/08/19 02:47:10;;;;;;;0.00;0.00;;;11.80;99.90;;;;;;5023624;28;20022;-92
2022/08/19 02:49:35;;;;;;;0.00;0.00;;;11.80;99.90;;;;;;5023499;28;20038;-92
2022/08/19 02:52:01;;;;;;;0.20;0.20;;;12.70;99.90;;;;;;5023073;28;20096;-93
2022/08/19 02:54:28;;;;;;;0.47;0.25;;;11.90;99.90;;;;;;5023063;28;20068;-93
2022/08/19 02:56:54;;;;;;;0.10;0.10;;;11.90;99.90;;;;;;5023055;28;20041;-93
2022/08/19 02:59:21;;;;;;;0.00;0.00;;;12.90;99.90;;;;;;5039847;28;20033;-92
2022/08/19 03:01:47;;;;;;;0.10;0.10;;;11.90;99.90;;;;;;5023317;28;20042;-94
2022/08/19 03:04:15;;;;;;;0.15;0.15;;;11.80;99.90;;;;;;5023153;28;20053;-93
2022/08/19 03:06:43;;;;;;;0.63;0.52;;;11.80;99.90;;;;;;5039136;28;20026;-92
2022/08/19 03:09:09;;;;;;;0.20;0.20;;;11.80;99.90;;;;;;5039165;28;20041;-93
2022/08/19 03:11:36;;;;;;;0.65;0.20;;;11.70;99.90;;;;;;5039432;28;20258;-93
2022/08/19 03:14:04;;;;;;;0.10;0.10;;;12.50;99.90;;;;;;5039491;28;20046;-93
2022/08/19 03:16:35;;;;;;;0.00;0.00;;;12.40;99.90;;;;;;5023017;28;20032;-93
2022/08/19 03:19:01;;;;;;;0.00;0.00;;;11.80;99.90;;;;;;5039518;28;20042;-92
2022/08/19 03:21:30;;;;;;;0.00;0.00;;;11.80;99.90;;;;;;5039840;28;20029;-93
2022/08/19 03:23:59;;;;;;;0.22;0.22;;;11.80;99.90;;;;;;5022887;28;20056;-93
2022/08/19 03:26:26;;;;;;;0.00;0.00;;;11.80;99.90;;;;;;5039198;28;20026;-92
2022/08/19 03:28:52;;;;;;;0.00;0.00;;;11.70;99.90;;;;;;5022886;28;20065;-92
2022/08/19 03:31:25;;;;;;;0.75;0.52;;;11.70;99.90;;;;;;5006585;28;20044;-93
2022/08/19 03:33:51;;;;;;;0.30;0.30;;;11.40;99.90;;;;;;5022940;28;20098;-93
2022/08/19 03:36:25;;;;;;;0.50;0.30;;;11.80;99.90;;;;;;5022399;28;20025;-93
2022/08/19 03:39:08;;;;;;;1.30;0.47;;;11.70;99.90;;;;;;5038625;28;20097;-92
2022/08/19 03:41:51;;;;;;;0.10;0.10;;;11.60;99.90;;;;;;5037130;28;20072;-93
2022/08/19 03:45:10;;;;;;;0.10;0.10;;;11.60;99.90;;;;;;5026008;28;20029;-92
2022/08/19 03:47:53;;;;;;;0.75;0.32;;;11.60;99.90;;;;;;5038788;28;20089;-92
2022/08/19 03:50:24;;;;;;;0.47;0.32;;;11.60;99.90;;;;;;5036661;28;20084;-92
2022/08/19 03:53:10;;;;;;;0.00;0.00;;;11.60;99.90;;;;;;4997415;28;20122;-92
2022/08/19 03:55:42;;;;;;;0.88;0.52;;;11.50;99.90;;;;;;5022329;28;20034;-93
2022/08/19 03:58:11;;;;;;;0.15;0.15;;;11.50;99.90;;;;;;5035697;28;20061;-92
2022/08/19 04:00:37;;;;;;;0.08;0.08;;;11.40;99.90;;;;;;5021356;28;20037;-94
2022/08/19 04:03:08;;;;;;;0.20;0.20;;;11.40;99.90;;;;;;5021596;28;20106;-93
2022/08/19 04:05:37;;;;;;;0.25;0.20;;;11.40;99.90;;;;;;5021766;28;20048;-93
2022/08/19 04:08:18;;;;;;;0.93;0.45;;;10.50;99.90;;;;;;5008051;28;20030;-93
2022/08/19 04:11:11;;;;;;;1.25;0.17;;;11.40;99.90;;;;;;5011475;28;20046;-92
2022/08/19 04:13:44;;;;;;;0.10;0.10;;;11.40;99.90;;;;;;5023003;28;20097;-93
2022/08/19 04:16:11;;;;;;;0.20;0.10;;;11.40;99.90;;;;;;5038528;28;20053;-93
2022/08/19 04:18:38;;;;;;;0.03;0.03;;;10.50;99.90;;;;;;5019898;28;20038;-93
2022/08/19 04:21:06;;;;;;;0.10;0.10;;;11.90;99.90;;;;;;5018579;28;20049;-94
2022/08/19 04:23:39;;;;;;;0.52;0.38;;;11.50;99.90;;;;;;5021033;28;20061;-94
2022/08/19 04:26:04;;;;;;;0.75;0.55;;;11.20;99.90;;;;;;5037861;28;20022;-93
2022/08/19 04:28:31;;;;;;;0.25;0.20;;;11.50;99.90;;;;;;5021462;28;20164;-93
2022/08/19 04:31:02;;;;;;;0.65;0.05;;;11.90;99.90;;;;;;5021534;28;20050;-93
2022/08/19 04:33:56;;;;;;;0.10;0.10;;;11.40;99.90;;;;;;5037367;28;20038;-93
2022/08/19 04:36:31;;;;;;;0.17;0.17;;;11.50;99.90;;;;;;5036416;28;20077;-93
2022/08/19 04:39:17;;;;;;;0.43;0.10;;;11.40;99.90;;;;;;5022285;28;20046;-92
2022/08/19 04:44:50;;;;;;;0.17;0.17;;;11.50;99.90;;;;;;5037547;28;20042;-92
2022/08/19 04:47:18;;;;;;;0.05;0.05;;;11.70;99.90;;;;;;5021129;28;20046;-92
2022/08/19 04:49:46;;;;;;;0.17;0.17;;;12.10;99.90;;;;;;5037278;28;20034;-92
2022/08/19 04:52:12;;;;;;;0.47;0.47;;;12.40;99.90;;;;;;5021058;28;20046;-92
2022/08/19 04:54:37;;;;;;;0.00;0.00;;;11.40;99.90;;;;;;5037456;28;20030;-92
2022/08/19 04:57:06;;;;;;;0.00;0.00;;;11.50;99.90;;;;;;5037331;28;20049;-92
2022/08/19 04:59:33;;;;;;;0.03;0.03;;;12.40;99.90;;;;;;5037118;28;20038;-92
2022/08/19 05:01:58;;;;;;;0.43;0.15;;;12.50;99.90;;;;;;5037442;28;20090;-92
2022/08/19 05:04:24;;;;;;;0.17;0.17;;;11.80;99.90;;;;;;5020575;28;20037;-92
2022/08/19 05:06:53;;;;;;;0.20;0.20;;;12.50;99.90;;;;;;5019875;28;20034;-92
2022/08/19 05:09:19;;;;;;;0.00;0.00;;;12.20;99.90;;;;;;5036429;28;20033;-93
2022/08/19 05:11:50;;;;;;;0.17;0.17;;;12.40;99.90;;;;;;5036680;28;20033;-92
2022/08/19 05:14:21;;;;;;;0.88;0.73;;;12.50;99.90;;;;;;5019671;28;20057;-92
2022/08/19 05:16:47;;;;;;;0.32;0.32;;;12.70;99.90;;;;;;5019695;28;20042;-92
2022/08/19 05:24:41;;;;;;;2.20;0.75;;;12.90;99.90;;;;;;5036646;28;20056;-92
2022/08/19 05:27:07;;;;;;;0.15;0.15;;;12.90;99.90;;;;;;5019416;28;20038;-92
2022/08/19 05:29:36;;;;;;;0.10;0.10;;;13.10;99.90;;;;;;5019657;28;20134;-92
2022/08/19 05:32:04;;;;;;;0.57;0.38;;;13.20;99.90;;;;;;5015899;28;20044;-92
2022/08/19 05:34:32;;;;;;;0.20;0.10;;;13.10;99.90;;;;;;5008901;28;20061;-93
2022/08/19 05:36:59;;;;;;;0.95;0.88;;;13.10;99.90;;;;;;5010805;28;20030;-93
2022/08/19 05:39:32;;;;;;;4.05;0.73;;;13.20;99.90;;;;;;5002981;28;20089;-92
2022/08/19 05:42:16;;;;;;;1.13;0.75;;;13.30;99.90;;;;;;5018834;28;20037;-91
2022/08/19 05:44:44;;;;;;;0.08;0.08;;;13.60;99.90;;;;;;5018759;28;20030;-93
2022/08/19 05:47:31;;;;;;;1.27;0.95;;;13.80;99.90;;;;;;5035052;28;20030;-93
2022/08/19 05:49:58;;;;;;;0.60;0.40;;;14.40;99.90;;;;;;5014685;28;20030;-92
2022/08/19 05:52:23;;;;;;;0.00;0.00;;;13.10;99.90;;;;;;5035378;28;20068;-93
2022/08/19 05:54:55;;;;;;;0.45;0.30;;;14.50;99.90;;;;;;5019060;28;20061;-93
2022/08/19 05:57:21;;;;;;;1.38;0.50;;;14.80;99.90;;;;;;5018788;28;20105;-91
2022/08/19 05:59:51;;;;;;;1.08;0.90;;;14.50;99.90;;;;;;5035525;28;20072;-92
2022/08/19 06:02:17;;;;;;;0.35;0.20;;;15.10;99.90;;;;;;5022913;28;20046;-92
2022/08/19 06:04:43;;;;;;;0.70;0.70;;;14.40;99.90;;;;;;5039651;28;20053;-92
2022/08/19 06:07:11;;;;;;;1.80;0.80;;;14.80;99.90;;;;;;5008006;28;20034;-92
2022/08/19 06:09:37;;;;;;;0.73;0.55;;;14.60;99.90;;;;;;5023617;28;20034;-92
2022/08/19 06:12:04;;;;;;;1.15;0.90;;;14.70;99.90;;;;;;5023484;28;20069;-93
2022/08/19 06:14:32;;;;;;;1.38;0.73;;;14.80;99.90;;;;;;5022964;28;20034;-91
2022/08/19 06:17:01;;;;;;;0.63;0.43;;;15.50;99.90;;;;;;5039502;28;20042;-92
2022/08/19 06:19:29;;;;;;;1.00;0.50;;;15.80;99.90;;;;;;5022999;28;20036;-92
2022/08/19 06:21:57;;;;;;;1.65;0.60;;;16.60;99.90;;;;;;5022886;28;20105;-92
2022/08/19 06:24:25;;;;;;;1.65;1.15;;;16.80;99.90;;;;;;5022870;28;20045;-92
2022/08/19 06:26:53;;;;;;;1.30;0.63;;;17.70;99.90;;;;;;5039451;28;20030;-92
2022/08/19 06:29:23;;;;;;;1.17;0.40;;;18.00;99.90;;;;;;5022771;28;20029;-92
2022/08/19 06:31:52;;;;;;;1.05;0.73;;;18.10;99.90;;;;;;5022775;28;20044;-91
2022/08/19 06:34:18;;;;;;;0.70;0.70;;;18.30;99.90;;;;;;5038975;28;20022;-92
2022/08/19 06:36:47;;;;;;;0.47;0.30;;;19.50;99.90;;;;;;5039172;28;20030;-92
2022/08/19 06:39:25;;;;;;;1.17;0.50;;;19.40;99.90;;;;;;5039135;28;20026;-92
2022/08/19 06:41:55;;;;;;;1.33;0.68;;;19.30;99.90;;;;;;5038579;28;20045;-92
2022/08/19 06:44:22;;;;;;;2.80;1.45;;;19.70;99.90;;;;;;5022829;28;20033;-91
2022/08/19 06:46:48;;;;;;;0.32;0.30;;;20.30;99.90;;;;;;5022239;28;20026;-92
2022/08/19 06:49:16;;;;;;;1.70;0.63;;;20.80;99.90;;;;;;5038154;28;20065;-93
2022/08/19 06:51:43;;;;;;;0.95;0.75;;;21.60;99.90;;;;;;5037580;28;20084;-94
2022/08/19 06:54:10;;;;;;;0.65;0.65;;;22.00;99.90;;;;;;5020517;28;20341;-94
2022/08/19 06:56:36;;;;;;;1.55;0.93;;;22.20;99.90;;;;;;5038276;28;20026;-92
2022/08/19 06:59:05;;;;;;;1.40;1.02;;;22.20;99.90;;;;;;5037451;28;20034;-92
2022/08/19 07:01:38;;;;;;;0.60;0.55;;;23.40;99.90;;;;;;5021768;28;20036;-93
2022/08/19 07:04:08;;;;;;;1.75;0.88;;;22.80;99.90;;;;;;5022003;28;20030;-93
2022/08/19 07:06:36;;;;;;;3.30;1.35;;;24.20;99.90;;;;;;5021592;28;20030;-93
2022/08/19 07:09:06;;;;;;;0.85;0.43;;;23.60;99.90;;;;;;5036565;28;20038;-94
2022/08/19 07:11:34;;;;;;;2.58;0.77;;;23.70;99.90;;;;;;5020521;28;20029;-94
2022/08/19 07:14:01;;;;;;;1.65;0.65;;;23.30;99.90;;;;;;5023786;28;20029;-92
2022/08/19 07:16:29;;;;;;;3.42;1.45;;;25.00;99.90;;;;;;5040274;28;20041;-92
2022/08/19 07:18:56;;;;;;;1.00;0.70;;;23.90;99.90;;;;;;5023567;28;20033;-93
2022/08/19 07:21:29;;;;;;;0.30;0.30;;;25.50;99.90;;;;;;5040099;28;20029;-92
2022/08/19 07:23:59;;;;;;;0.52;0.50;;;26.10;99.90;;;;;;5023051;28;20030;-93
2022/08/19 07:26:29;;;;;;;0.15;0.15;;;25.40;99.90;;;;;;5022289;28;20034;-92
2022/08/19 07:28:55;;;;;;;0.88;0.65;;;25.70;99.90;;;;;;5036566;28;20045;-94
2022/08/19 07:31:24;;;;;;;0.68;0.50;;;25.70;99.90;;;;;;5021013;28;20030;-94
2022/08/19 07:33:51;;;;;;;1.30;1.00;;;26.60;99.90;;;;;;5035077;28;20030;-94
2022/08/19 07:36:20;;;;;;;1.40;0.75;;;25.80;99.90;;;;;;5032992;28;20038;-94
2022/08/19 07:38:49;;;;;;;1.13;0.60;;;26.00;99.90;;;;;;5029282;28;20042;-93
2022/08/19 07:41:20;;;;;;;1.45;1.15;;;26.00;99.90;;;;;;5029340;28;20040;-93
2022/08/19 07:43:46;;;;;;;7.13;1.02;;;25.90;99.90;;;;;;5030331;28;20038;-93
2022/08/19 07:46:13;;;;;;;0.82;0.80;;;26.20;99.90;;;;;;5029180;28;20038;-93
2022/08/19 07:48:41;;;;;;;1.13;0.70;;;26.40;99.90;;;;;;5009300;28;20041;-95
2022/08/19 07:51:08;;;;;;;1.25;0.70;;;26.50;99.90;;;;;;5026385;28;20042;-93
2022/08/19 07:53:35;;;;;;;2.08;1.25;;;26.80;99.90;;;;;;5026897;28;20053;-95
2022/08/19 07:56:05;;;;;;;0.40;0.40;;;26.80;99.90;;;;;;5027224;28;20459;-94
2022/08/19 07:58:34;;;;;;;1.40;1.02;;;27.20;99.90;;;;;;5008717;28;20081;-94
2022/08/19 08:01:00;;;;;;;0.40;0.40;;;28.00;99.90;;;;;;5027785;28;20046;-94
2022/08/19 08:09:15;;;;;;;0.88;0.70;;;28.40;99.90;;;;;;5025788;28;20089;-92
2022/08/19 08:11:57;;;;;;;0.88;0.65;;;28.70;99.50;;;;;;5026781;28;20084;-93
2022/08/19 08:14:36;;;;;;;0.22;0.22;;;28.90;97.10;;;;;;5023606;28;20051;-94
2022/08/19 08:17:04;;;;;;;2.30;1.38;;;29.20;91.40;;;;;;5021571;28;20038;-94
2022/08/19 08:19:30;;;;;;;0.38;0.30;;;29.20;88.00;;;;;;5021870;28;20618;-93
2022/08/19 08:21:57;;;;;;;0.88;0.70;;;29.40;93.10;;;;;;5005017;28;20099;-92
2022/08/19 08:24:24;;;;;;;1.13;0.73;;;29.60;75.10;;;;;;5020509;28;20519;-93
2022/08/19 08:26:49;;;;;;;1.20;1.10;;;29.80;69.60;;;;;;5018141;28;20053;-94
2022/08/19 08:29:15;;;;;;;0.75;0.52;;;29.90;94.10;;;;;;5016775;28;20042;-93
2022/08/19 08:31:43;;;;;;;0.77;0.60;;;30.20;77.30;;;;;;5019625;28;20056;-94
2022/08/19 08:34:12;;;;;;;0.40;0.30;;;29.80;76.60;;;;;;5020159;28;20113;-94
2022/08/19 08:36:41;;;;;;;2.80;1.35;;;29.80;75.70;;;;;;5018576;28;20045;-93
2022/08/19 08:39:19;;;;;;;0.98;0.65;;;29.50;46.30;;;;;;5017613;28;20041;-93
2022/08/19 08:42:09;;;;;;;0.80;0.80;;;29.70;71.10;;;;;;5017126;28;20503;-91
2022/08/19 08:45:00;;;;;;;0.13;0.10;;;30.00;49.80;;;;;;5000835;28;20045;-91
2022/08/19 08:47:32;;;;;;;8.07;0.77;;;30.10;51.30;;;;;;5018735;28;20072;-89
2022/08/19 08:50:35;;;;;;;0.77;0.50;;;30.00;52.60;;;;;;5017589;28;20125;-90
2022/08/19 08:53:04;;;;;;;0.57;0.47;;;30.40;56.20;;;;;;5005545;28;20552;-90
2022/08/19 08:55:30;;;;;;;0.75;0.57;;;30.20;35.50;;;;;;5017472;28;20178;-89
2022/08/19 08:58:05;;;;;;;1.05;0.75;;;30.20;48.10;;;;;;5018589;28;20134;-94
2022/08/19 09:00:34;;;;;;;0.22;0.15;;;30.50;45.10;;;;;;5019885;28;20080;-91
2022/08/19 09:03:02;;;;;;;1.75;0.93;;;30.80;37.90;;;;;;5017856;28;20088;-91
2022/08/19 09:05:56;;;;;;;1.25;0.75;;;30.80;30.80;;;;;;5021140;28;20046;-92
2022/08/19 09:08:40;;;;;;;0.60;0.40;;;30.60;29.90;;;;;;5018421;28;20038;-91
2022/08/19 09:11:14;;;;;;;0.43;0.38;;;30.40;28.60;;;;;;5020847;28;20041;-92
2022/08/19 09:14:14;;;;;;;0.50;0.40;;;30.40;43.80;;;;;;5017628;28;20038;-91
2022/08/19 09:16:40;;;;;;;7.47;1.17;;;30.40;40.30;;;;;;5018462;28;20073;-91
2022/08/19 09:19:07;;;;;;;0.50;0.50;;;31.00;40.70;;;;;;5018167;28;20034;-91
2022/08/19 09:21:34;;;;;;;1.08;0.52;;;30.40;37.70;;;;;;5016233;28;20057;-91
2022/08/19 09:24:01;;;;;;;0.77;0.68;;;30.70;29.50;;;;;;5015850;28;20050;-91
2022/08/19 09:26:27;;;;;;;0.30;0.25;;;30.10;38.50;;;;;;5018918;28;20042;-92
2022/08/19 09:28:54;;;;;;;0.52;0.50;;;30.80;30.00;;;;;;5018844;28;20097;-92
2022/08/19 09:31:23;;;;;;;0.73;0.52;;;31.30;39.80;;;;;;5016359;28;20060;-92
2022/08/19 09:33:49;;;;;;;0.70;0.55;;;30.20;26.60;;;;;;5018376;28;20588;-91
2022/08/19 09:36:18;;;;;;;0.50;0.50;;;30.50;23.20;;;;;;5022012;28;20097;-90
2022/08/19 09:38:44;;;;;;;0.93;0.75;;;30.50;24.70;;;;;;5020988;28;20444;-92
2022/08/19 09:41:16;;;;;;;1.08;0.63;;;30.20;21.60;;;;;;5024484;28;20029;-93
2022/08/19 09:43:45;;;;;;;1.13;0.47;;;30.60;34.80;;;;;;5023137;28;20057;-91
2022/08/19 09:46:11;;;;;;;2.92;0.57;;;30.10;30.30;;;;;;5005243;28;20038;-91
2022/08/19 09:48:41;;;;;;;0.57;0.43;;;30.40;34.10;;;;;;5023312;28;20056;-90
2022/08/19 09:51:10;;;;;;;0.20;0.20;;;30.20;41.50;;;;;;5022259;28;20088;-91
2022/08/19 09:53:37;;;;;;;0.85;0.65;;;30.00;34.30;;;;;;5009255;28;20041;-90
2022/08/19 09:56:05;;;;;;;0.20;0.20;;;29.90;51.50;;;;;;5031230;28;20077;-90
2022/08/19 09:58:31;;;;;;;0.60;0.52;;;29.80;46.90;;;;;;5026594;28;20065;-91
2022/08/19 10:00:59;;;;;;;0.77;0.60;;;29.80;46.90;;;;;;5022007;28;20049;-90
2022/08/19 10:03:26;;;;;;;1.65;1.17;;;29.60;36.90;;;;;;5021933;28;20100;-91
2022/08/19 10:05:53;;;;;;;0.60;0.40;;;30.20;28.90;;;;;;5023093;28;20046;-91
2022/08/19 10:08:32;;;;;;;0.10;0.10;;;29.70;52.90;;;;;;5028676;28;20053;-91
2022/08/19 10:10:59;;;;;;;0.82;0.65;;;29.50;44.60;;;;;;5028194;28;20034;-92
2022/08/19 10:13:29;;;;;;;0.55;0.52;;;29.50;49.70;;;;;;5029682;28;20046;-92
2022/08/19 10:16:01;;;;;;;0.82;0.63;;;29.30;43.20;;;;;;5029019;28;20050;-91
2022/08/19 10:18:27;;;;;;;0.40;0.32;;;29.80;40.60;;;;;;5027909;28;20046;-92
2022/08/19 10:21:09;;;;;;;1.15;0.77;;;29.30;34.10;;;;;;5028924;28;20080;-92
2022/08/19 10:23:37;;;;;;;0.57;0.57;;;29.30;35.40;;;;;;5029549;28;20038;-91
2022/08/19 10:26:05;;;;;;;1.40;0.93;;;29.40;36.50;;;;;;5027936;28;20101;-91
2022/08/19 10:28:37;;;;;;;0.90;0.52;;;29.20;32.70;;;;;;5035218;28;20597;-91
2022/08/19 10:31:08;;;;;;;0.20;0.20;;;29.00;35.90;;;;;;5037731;28;20042;-91
2022/08/19 10:33:34;;;;;;;2.85;0.57;;;29.20;31.50;;;;;;5034871;28;20041;-91
2022/08/19 10:36:09;;;;;;;1.08;0.57;;;29.30;36.40;;;;;;5027204;28;20042;-91
2022/08/19 10:38:36;;;;;;;0.82;0.52;;;29.30;32.90;;;;;;5027627;28;20121;-92
2022/08/19 10:41:10;;;;;;;0.57;0.55;;;30.00;27.50;;;;;;5029695;28;20105;-92
2022/08/19 10:43:37;;;;;;;0.52;0.52;;;29.40;31.10;;;;;;5029209;28;20046;-92
2022/08/19 10:46:05;;;;;;;1.20;0.73;;;29.50;24.80;;;;;;5028455;28;20061;-92
2022/08/19 10:48:32;;;;;;;0.80;0.40;;;29.40;27.30;;;;;;5038257;28;20065;-91
2022/08/19 10:53:42;;;;;;;1.30;0.70;;;29.80;23.20;;;;;;5031417;28;20045;-92
2022/08/19 10:58:52;;;;;;;0.60;0.60;;;29.60;24.90;;;;;;5038367;28;20089;-92
2022/08/19 11:01:18;;;;;;;1.35;0.75;;;29.10;28.00;;;;;;5039816;28;20057;-92
2022/08/19 11:03:44;;;;;;;0.70;0.50;;;29.00;22.50;;;;;;5039039;28;20026;-91
2022/08/19 11:06:11;;;;;;;3.65;0.82;;;29.20;26.50;;;;;;5036550;28;20101;-92
2022/08/19 11:08:40;;;;;;;1.95;0.50;;;28.60;22.90;;;;;;5031339;28;20080;-93
2022/08/19 11:11:07;;;;;;;0.60;0.50;;;28.20;31.40;;;;;;5031199;28;20101;-93
2022/08/19 11:13:38;;;;;;;0.47;0.47;;;28.20;40.50;;;;;;5031906;28;20076;-92
2022/08/19 11:16:07;;;;;;;0.22;0.15;;;28.20;28.40;;;;;;5035609;28;20042;-92
2022/08/19 11:18:38;;;;;;;1.17;1.00;;;28.40;38.30;;;;;;5035781;28;20053;-92
2022/08/19 11:21:23;;;;;;;1.02;0.77;;;28.70;30.00;;;;;;5037105;28;20112;-92
2022/08/19 11:23:51;;;;;;;2.42;1.40;;;29.20;29.90;;;;;;5033283;28;20069;-92
2022/08/19 11:26:19;;;;;;;6.15;0.73;;;29.70;23.90;;;;;;5032589;28;20026;-92
2022/08/19 11:28:45;;;;;;;0.98;0.68;;;30.20;20.30;;;;;;5016957;28;20081;-93
2022/08/19 11:31:13;;;;;;;0.63;0.63;;;30.70;19.60;;;;;;5035210;28;20017;-93
2022/08/19 11:33:39;;;;;;;1.08;0.57;;;30.90;15.90;;;;;;5035199;28;20057;-91
2022/08/19 11:36:05;;;;;;;0.22;0.22;;;31.40;9.20;;;;;;5011637;28;20022;-91
2022/08/19 11:38:30;;;;;;;0.25;0.25;;;31.70;9.20;;;;;;5029657;28;20057;-91
2022/08/19 11:41:01;;;;;;;1.88;1.10;;;31.30;5.30;;;;;;5033908;28;20049;-91
2022/08/19 11:43:28;;;;;;;0.55;0.55;;;30.90;4.80;;;;;;5034893;28;20044;-92
2022/08/19 11:45:55;;;;;;;2.42;1.05;;;31.50;8.70;;;;;;5013265;28;20110;-91
2022/08/19 11:48:21;;;;;;;3.50;0.80;;;31.70;6.00;;;;;;5022372;28;20048;-92
2022/08/19 11:50:48;;;;;;;2.33;1.25;;;32.50;4.80;;;;;;5009987;28;20042;-92
2022/08/19 11:53:14;;;;;;;1.20;0.70;;;33.50;5.20;;;;;;5023701;28;20392;-92
2022/08/19 11:55:42;;;;;;;1.65;0.65;;;34.30;1.00;;;;;;5022095;28;20049;-92
2022/08/19 11:58:08;;;;;;;1.38;0.65;;;34.50;1.00;;;;;;5021815;28;20089;-90
2022/08/19 12:00:36;;;;;;;0.80;0.43;;;33.50;1.00;;;;;;5029574;28;20054;-92
2022/08/19 12:03:02;;;;;;;1.63;1.13;;;33.70;1.00;;;;;;5032150;28;20037;-91
2022/08/19 12:05:28;;;;;;;3.75;0.60;;;33.90;1.00;;;;;;5031382;28;20080;-91
2022/08/19 12:07:54;;;;;;;1.05;0.77;;;33.40;1.00;;;;;;5021302;28;20049;-90
2022/08/19 12:10:21;;;;;;;1.05;0.50;;;32.90;1.00;;;;;;5023302;28;20522;-90
2022/08/19 12:12:46;;;;;;;1.38;0.65;;;31.60;1.00;;;;;;5034234;28;20022;-90
2022/08/19 12:15:14;;;;;;;1.05;0.52;;;31.90;6.10;;;;;;5022397;28;20045;-89
2022/08/19 12:17:41;;;;;;;1.08;0.85;;;32.30;1.40;;;;;;5026617;28;20061;-90
2022/08/19 12:20:10;;;;;;;1.35;0.88;;;31.80;3.80;;;;;;5023010;28;20050;-90
2022/08/19 12:22:36;;;;;;;1.35;0.93;;;30.80;7.70;;;;;;5022874;28;20695;-91
2022/08/19 12:25:04;;;;;;;2.28;0.52;;;30.10;11.40;;;;;;5020309;28;20125;-90
2022/08/19 12:27:30;;;;;;;1.58;0.95;;;29.90;20.60;;;;;;5019181;28;20502;-90
2022/08/19 12:29:56;;;;;;;0.93;0.70;;;30.40;18.80;;;;;;5019957;28;20097;-90
2022/08/19 12:32:22;;;;;;;1.27;0.88;;;29.70;21.00;;;;;;5018289;28;20048;-90
2022/08/19 12:34:48;;;;;;;4.15;2.10;;;29.70;25.20;;;;;;5014853;28;20050;-90
2022/08/19 12:37:14;;;;;;;2.53;1.42;;;29.60;19.40;;;;;;5021403;28;20033;-90
2022/08/19 12:39:42;;;;;;;0.93;0.73;;;29.80;21.40;;;;;;5021151;28;20041;-90
2022/08/19 12:42:10;;;;;;;0.88;0.85;;;30.50;16.90;;;;;;5021311;28;20060;-90
2022/08/19 12:44:39;;;;;;;1.65;1.00;;;30.40;15.50;;;;;;5003883;28;20069;-91
2022/08/19 12:47:06;;;;;;;2.53;1.35;;;30.50;15.20;;;;;;5021125;28;20022;-89
2022/08/19 12:49:33;;;;;;;0.32;0.32;;;30.50;13.50;;;;;;5020942;28;20030;-90
2022/08/19 12:52:04;;;;;;;0.60;0.52;;;30.50;11.90;;;;;;5021593;28;20052;-90
2022/08/19 12:54:30;;;;;;;0.70;0.60;;;31.20;12.80;;;;;;5037415;28;20094;-90
2022/08/19 12:56:57;;;;;;;1.02;0.57;;;31.00;9.00;;;;;;5020818;28;20044;-90
2022/08/19 12:59:23;;;;;;;1.60;1.23;;;31.30;7.10;;;;;;5037259;28;20048;-91
2022/08/19 13:01:49;;;;;;;1.10;0.68;;;31.40;3.90;;;;;;5021088;28;20029;-90
2022/08/19 13:04:16;;;;;;;0.60;0.60;;;31.20;4.90;;;;;;5037070;28;20061;-90
2022/08/19 13:06:42;;;;;;;0.40;0.32;;;31.50;3.50;;;;;;5020745;28;20029;-90
2022/08/19 13:09:08;;;;;;;2.15;1.05;;;32.20;1.20;;;;;;5020541;28;20086;-91
2022/08/19 13:11:34;;;;;;;1.48;0.60;;;32.70;1.00;;;;;;5020616;28;20044;-90
2022/08/19 13:14:02;;;;;;;0.55;0.52;;;33.10;1.00;;;;;;5004675;28;20036;-90
2022/08/19 13:16:28;;;;;;;2.55;1.00;;;32.50;1.00;;;;;;5036968;28;20030;-90
2022/08/19 13:18:55;;;;;;;2.92;1.00;;;32.40;1.00;;;;;;5036889;28;20033;-90